createdAt,value
2023-01-30T00:01:38.706Z,-1.86
2023-01-30T00:06:41.494Z,-1.90
2023-01-30T00:11:43.285Z,-1.95
2023-01-30T00:16:45.158Z,-2.02
2023-01-30T00:21:46.923Z,-2.14
2023-01-30T00:26:48.638Z,-2.31
2023-01-30T00:31:50.459Z,-2.43
2023-01-30T00:37:07.129Z,-2.59
2023-01-30T00:42:28.771Z,-2.80
2023-01-30T00:47:30.517Z,-2.98
2023-01-30T00:52:32.223Z,-3.11
2023-01-30T00:57:33.918Z,-3.25
2023-01-30T01:02:35.899Z,-3.35
2023-01-30T01:07:37.598Z,-3.38
2023-01-30T01:12:39.241Z,-3.37
2023-01-30T01:17:42.030Z,-3.35
2023-01-30T01:22:45.816Z,-3.35
2023-01-30T01:27:48.423Z,-3.38
2023-01-30T01:32:51.579Z,-3.38
2023-01-30T01:37:54.627Z,-3.39
2023-01-30T01:42:56.275Z,-3.42
2023-01-30T01:48:03.857Z,-3.42
2023-01-30T01:53:07.308Z,-3.41
2023-01-30T01:58:13.891Z,-3.38
2023-01-30T02:03:19.779Z,-3.34
2023-01-30T02:08:26.545Z,-3.32
2023-01-30T02:13:28.496Z,-3.29
2023-01-30T02:18:32.094Z,-3.27
2023-01-30T02:24:11.553Z,-3.24
2023-01-30T02:29:51.006Z,-3.18
2023-01-30T02:35:08.303Z,-3.15
2023-01-30T02:40:31.754Z,-3.12
2023-01-30T02:46:00.387Z,-3.05
2023-01-30T02:51:07.473Z,-2.98
2023-01-30T02:56:09.473Z,-2.87
2023-01-30T03:01:24.090Z,-2.75
2023-01-30T03:06:38.182Z,-2.63
2023-01-30T03:12:09.238Z,-2.53
2023-01-30T03:17:13.297Z,-2.51
2023-01-30T03:22:15.350Z,-2.54
2023-01-30T03:27:17.869Z,-2.60
2023-01-30T03:32:19.551Z,-2.65
2023-01-30T03:37:21.528Z,-2.62
2023-01-30T03:42:23.459Z,-2.56
2023-01-30T03:47:25.297Z,-2.48
2023-01-30T03:52:27.328Z,-2.40
2023-01-30T03:57:29.260Z,-2.34
2023-01-30T04:02:31.179Z,-2.28
2023-01-30T04:07:33.682Z,-2.25
2023-01-30T04:12:35.719Z,-2.22
2023-01-30T04:17:38.812Z,-2.19
2023-01-30T04:22:56.388Z,-2.18
2023-01-30T04:27:59.583Z,-2.13
2023-01-30T04:33:05.105Z,-2.05
2023-01-30T04:38:06.814Z,-2.01
2023-01-30T04:43:08.705Z,-1.97
2023-01-30T04:48:10.405Z,-1.95
2023-01-30T04:53:12.905Z,-1.90
2023-01-30T04:58:15.933Z,-1.87
2023-01-30T05:03:18.602Z,-1.85
2023-01-30T05:08:20.286Z,-1.84
2023-01-30T05:13:22.118Z,-1.86
2023-01-30T05:18:23.858Z,-1.87
2023-01-30T05:23:25.488Z,-1.86
2023-01-30T05:28:28.181Z,-1.84
2023-01-30T05:33:30.461Z,-1.83
2023-01-30T05:38:32.387Z,-1.81
2023-01-30T05:43:35.551Z,-1.78
2023-01-30T05:48:37.566Z,-1.76
2023-01-30T05:53:39.227Z,-1.73
2023-01-30T05:58:40.995Z,-1.76
2023-01-30T06:03:42.832Z,-1.82
2023-01-30T06:08:44.982Z,-1.82
2023-01-30T06:13:46.855Z,-1.79
2023-01-30T06:18:48.588Z,-1.79
2023-01-30T06:23:50.522Z,-1.75
2023-01-30T06:28:52.195Z,-1.72
2023-01-30T06:33:53.885Z,-1.70
2023-01-30T06:38:55.621Z,-1.64
2023-01-30T06:43:57.340Z,-1.60
2023-01-30T06:48:59.132Z,-1.60
2023-01-30T06:54:00.847Z,-1.56
2023-01-30T06:59:02.494Z,-1.56
2023-01-30T07:04:04.389Z,-1.56
2023-01-30T07:09:06.044Z,-1.54
2023-01-30T07:14:09.457Z,-1.54
2023-01-30T07:19:11.150Z,-1.53
2023-01-30T07:24:13.029Z,-1.48
2023-01-30T07:29:14.713Z,-1.47
2023-01-30T07:34:16.372Z,-1.49
2023-01-30T07:39:18.027Z,-1.48
2023-01-30T07:44:19.819Z,-1.46
2023-01-30T07:49:21.736Z,-1.43
2023-01-30T07:54:23.474Z,-1.39
2023-01-30T07:59:25.160Z,-1.28
2023-01-30T08:04:26.836Z,-1.21
2023-01-30T08:09:28.519Z,-1.06
2023-01-30T08:14:30.310Z,-0.20
2023-01-30T08:19:32.053Z,1.25
2023-01-30T08:24:33.858Z,2.42
2023-01-30T08:29:35.842Z,2.70
2023-01-30T08:34:37.581Z,2.05
2023-01-30T08:39:39.246Z,1.38
2023-01-30T08:44:40.903Z,0.98
2023-01-30T08:49:42.561Z,0.75
2023-01-30T08:54:44.471Z,0.52
2023-01-30T08:59:46.314Z,0.30
2023-01-30T09:04:48.107Z,0.16
2023-01-30T09:09:49.867Z,0.10
2023-01-30T09:14:53.813Z,0.02
2023-01-30T09:19:55.584Z,-0.05
2023-01-30T09:24:59.016Z,-0.04
2023-01-30T09:30:00.668Z,0.03
2023-01-30T09:35:02.359Z,0.06
2023-01-30T09:40:05.227Z,0.10
2023-01-30T09:45:30.461Z,0.12
2023-01-30T09:51:19.817Z,0.12
2023-01-30T09:56:21.535Z,-0.08
2023-01-30T10:01:40.641Z,-0.17
2023-01-30T10:07:08.613Z,-0.24
2023-01-30T10:12:31.174Z,-0.30
2023-01-30T10:17:49.387Z,-0.27
2023-01-30T10:23:10.211Z,-0.29
2023-01-30T10:28:33.183Z,-0.29
2023-01-30T10:33:44.891Z,-0.26
2023-01-30T10:38:49.902Z,-0.22
2023-01-30T10:44:01.295Z,-0.17
2023-01-30T10:49:43.474Z,-0.11
2023-01-30T10:54:59.940Z,0.02
2023-01-30T11:00:10.406Z,0.09
2023-01-30T11:05:24.294Z,0.15
2023-01-30T11:10:27.756Z,0.23
2023-01-30T11:15:43.555Z,0.26
2023-01-30T11:20:55.275Z,0.41
2023-01-30T11:26:10.393Z,0.67
2023-01-30T11:31:40.717Z,0.82
2023-01-30T11:36:43.578Z,0.78
2023-01-30T11:41:54.393Z,0.68
2023-01-30T11:47:03.906Z,0.71
2023-01-30T11:52:06.459Z,0.81
2023-01-30T11:57:14.684Z,0.88
2023-01-30T12:02:28.311Z,0.98
2023-01-30T12:07:33.580Z,1.10
2023-01-30T12:12:43.581Z,1.21
2023-01-30T12:18:27.225Z,1.34
2023-01-30T12:23:48.504Z,1.41
2023-01-30T12:29:23.591Z,1.42
2023-01-30T12:34:27.225Z,1.34
2023-01-30T12:39:54.821Z,1.21
2023-01-30T12:45:21.524Z,1.15
2023-01-30T12:50:41.822Z,1.17
2023-01-30T12:56:19.790Z,1.21
2023-01-30T13:01:43.351Z,1.25
2023-01-30T13:06:59.025Z,1.25
2023-01-30T13:12:00.682Z,1.30
2023-01-30T13:17:14.376Z,1.41
2023-01-30T13:22:35.663Z,1.53
2023-01-30T13:27:40.263Z,1.62
2023-01-30T13:32:49.508Z,1.75
2023-01-30T13:37:54.428Z,1.89
2023-01-30T13:43:19.843Z,2.04
2023-01-30T13:48:37.624Z,2.19
2023-01-30T13:53:53.960Z,2.28
2023-01-30T13:59:10.018Z,2.31
2023-01-30T14:04:43.358Z,2.37
2023-01-30T14:10:11.121Z,2.39
2023-01-30T14:15:12.850Z,2.34
2023-01-30T14:20:20.821Z,2.27
2023-01-30T14:25:22.515Z,2.22
2023-01-30T14:30:45.802Z,2.17
2023-01-30T14:36:02.793Z,2.13
2023-01-30T14:41:04.509Z,2.10
2023-01-30T14:46:12.670Z,2.08
2023-01-30T14:51:39.293Z,2.10
2023-01-30T14:57:01.653Z,2.15
2023-01-30T15:02:06.345Z,2.17
2023-01-30T15:07:13.338Z,2.18
2023-01-30T15:12:20.904Z,2.19
2023-01-30T15:17:58.258Z,2.17
2023-01-30T15:23:42.019Z,2.16
2023-01-30T15:29:17.898Z,2.15
2023-01-30T15:34:20.498Z,2.13
2023-01-30T15:39:29.171Z,2.12
2023-01-30T15:44:58.275Z,2.13
2023-01-30T15:50:04.829Z,2.11
2023-01-30T15:55:15.125Z,2.13
2023-01-30T16:00:27.329Z,2.16
2023-01-30T16:05:30.355Z,2.16
2023-01-30T16:10:32.302Z,2.18
2023-01-30T16:15:38.987Z,2.22
2023-01-30T16:21:00.083Z,2.24
2023-01-30T16:26:04.387Z,2.23
2023-01-30T16:31:08.812Z,2.20
2023-01-30T16:36:19.514Z,2.15
2023-01-30T16:41:36.024Z,2.08
2023-01-30T16:47:04.814Z,1.99
2023-01-30T16:52:20.781Z,1.89
2023-01-30T16:57:35.839Z,1.78
2023-01-30T17:02:41.101Z,1.72
2023-01-30T17:07:43.192Z,1.74
2023-01-30T17:12:48.343Z,1.79
2023-01-30T17:17:50.854Z,1.83
2023-01-30T17:22:57.872Z,1.87
2023-01-30T17:27:59.624Z,1.92
2023-01-30T17:33:01.401Z,1.95
2023-01-30T17:38:05.946Z,1.98
2023-01-30T17:43:09.625Z,2.02
2023-01-30T17:48:12.656Z,2.03
2023-01-30T17:53:14.314Z,2.03
2023-01-30T17:58:17.284Z,2.05
2023-01-30T18:03:19.523Z,2.05
2023-01-30T18:08:21.405Z,2.04
2023-01-30T18:13:23.189Z,2.05
2023-01-30T18:18:24.893Z,2.02
2023-01-30T18:23:26.596Z,1.99
2023-01-30T18:28:28.246Z,2.01
2023-01-30T18:33:29.888Z,2.04
2023-01-30T18:38:32.124Z,2.06
2023-01-30T18:43:34.236Z,2.10
2023-01-30T18:48:36.772Z,2.11
2023-01-30T18:53:39.244Z,2.10
2023-01-30T18:58:41.455Z,2.14
2023-01-30T19:03:43.707Z,2.20
2023-01-30T19:08:45.910Z,2.23
2023-01-30T19:13:47.595Z,2.25
2023-01-30T19:18:50.021Z,2.31
2023-01-30T19:23:52.659Z,2.36
2023-01-30T19:28:54.420Z,2.37
2023-01-30T19:33:58.712Z,2.40
2023-01-30T19:39:03.481Z,2.44
2023-01-30T19:44:08.279Z,2.45
2023-01-30T19:49:11.357Z,2.42
2023-01-30T19:54:13.123Z,2.41
2023-01-30T19:59:16.577Z,2.39
2023-01-30T20:04:18.299Z,2.42
2023-01-30T20:09:20.169Z,2.52
2023-01-30T20:14:21.958Z,2.59
2023-01-30T20:19:23.655Z,2.65
2023-01-30T20:24:25.625Z,2.69
2023-01-30T20:29:27.435Z,2.66
2023-01-30T20:34:29.136Z,2.58
2023-01-30T20:39:31.266Z,2.50
2023-01-30T20:44:35.295Z,2.43
2023-01-30T20:49:37.306Z,2.42
2023-01-30T20:54:39.139Z,2.43
2023-01-30T20:59:42.138Z,2.44
2023-01-30T21:04:43.933Z,2.40
2023-01-30T21:09:45.721Z,2.41
2023-01-30T21:14:47.395Z,2.45
2023-01-30T21:19:49.040Z,2.48
2023-01-30T21:24:50.991Z,2.48
2023-01-30T21:29:52.733Z,2.51
2023-01-30T21:34:54.403Z,2.57
2023-01-30T21:40:14.956Z,2.62
2023-01-30T21:45:16.787Z,2.71
2023-01-30T21:50:18.651Z,2.76
2023-01-30T21:55:20.677Z,2.78
2023-01-30T22:00:22.738Z,2.78
2023-01-30T22:05:24.459Z,2.82
2023-01-30T22:10:26.197Z,2.87
2023-01-30T22:15:27.855Z,2.85
2023-01-30T22:20:29.914Z,2.84
2023-01-30T22:25:31.694Z,2.81
2023-01-30T22:30:33.611Z,2.68
2023-01-30T22:35:36.002Z,2.51
2023-01-30T22:40:38.478Z,2.36
2023-01-30T22:45:40.390Z,2.21
2023-01-30T22:50:42.027Z,2.11
2023-01-30T22:55:43.709Z,2.02
2023-01-30T23:00:45.480Z,1.93
2023-01-30T23:06:00.982Z,1.89
2023-01-30T23:11:10.046Z,1.86
2023-01-30T23:16:13.016Z,1.78
2023-01-30T23:21:15.402Z,1.73
2023-01-30T23:26:17.322Z,1.70
2023-01-30T23:31:22.274Z,1.66
2023-01-30T23:36:24.983Z,1.65
2023-01-30T23:41:31.977Z,1.64
2023-01-30T23:46:40.035Z,1.60
2023-01-30T23:51:44.346Z,1.57
2023-01-30T23:56:46.194Z,1.57
